Time;durP1;ratioP1;P1;durP2;ratioP2;P2;SDS_P1;SDS_P2;PMS_P1;PMS_P2;Temp;Humidity;BMP_temperature;BMP_pressure;BME280_temperature;BME280_humidity;BME280_pressure;Samples;Min_cycle;Max_cycle;Signal;HPM_P1;HPM_P2
2022/01/26 00:06:33;;;;;;;;;;;15.00;49.10;;;;;;5092489;28;19931;-63
2022/01/26 00:08:58;;;;;;;;;;;15.00;49.10;;;;;;5092367;28;19908;-63
2022/01/26 00:11:24;;;;;;;;;;;15.00;49.20;;;;;;5092517;28;19912;-63
2022/01/26 00:13:50;;;;;;;;;;;14.90;49.20;;;;;;5092404;28;19962;-63
2022/01/26 00:16:27;;;;;;;;;;;15.00;49.20;;;;;;5092255;28;20326;-63
2022/01/26 00:18:56;;;;;;;;;;;15.00;49.20;;;;;;5092245;28;19995;-63
2022/01/26 00:21:35;;;;;;;;;;;15.00;49.10;;;;;;5092576;28;19919;-63
2022/01/26 00:24:25;;;;;;;;;;;15.00;49.00;;;;;;5091898;28;20421;-63
2022/01/26 00:29:21;;;;;;;;;;;15.10;48.90;;;;;;5097926;28;20409;-63
2022/01/26 00:40:06;;;;;;;;;;;15.20;48.70;;;;;;5091062;28;20268;-63
2022/01/26 00:42:37;;;;;;;;;;;15.20;48.60;;;;;;5098989;28;20352;-63
2022/01/26 00:45:05;;;;;;;;;;;15.20;48.50;;;;;;5124882;28;19908;-63
2022/01/26 00:47:31;;;;;;;;;;;15.30;48.50;;;;;;5092257;28;20356;-63
2022/01/26 00:50:01;;;;;;;;;;;15.30;48.40;;;;;;5092085;28;19947;-63
2022/01/26 00:52:38;;;;;;;;;;;15.30;48.40;;;;;;5092757;28;20056;-63
2022/01/26 00:55:04;;;;;;;;;;;15.40;48.30;;;;;;5092092;28;19957;-63
2022/01/26 00:57:29;;;;;;;;;;;15.40;48.30;;;;;;5091935;28;19920;-63
2022/01/26 00:59:57;;;;;;;;;;;15.40;48.20;;;;;;5091932;28;20425;-63
2022/01/26 01:02:22;;;;;;;;;;;15.40;48.20;;;;;;5091928;28;19915;-63
2022/01/26 01:04:48;;;;;;;;;;;15.40;48.10;;;;;;5091753;28;20003;-63
2022/01/26 01:07:18;;;;;;;;;;;15.40;48.10;;;;;;5091994;28;20494;-62
2022/01/26 01:09:44;;;;;;;;;;;15.50;48.10;;;;;;5098331;28;20403;-63
2022/01/26 01:12:10;;;;;;;;;;;15.50;48.00;;;;;;5092349;28;19912;-63
2022/01/26 01:14:38;;;;;;;;;;;15.50;48.00;;;;;;5092095;28;20006;-63
2022/01/26 01:17:05;;;;;;;;;;;15.60;47.90;;;;;;5091841;28;20054;-63
2022/01/26 01:19:46;;;;;;;;;;;15.50;47.80;;;;;;5091701;28;19916;-63
2022/01/26 01:27:40;;;;;;;;;;;15.50;47.80;;;;;;5090775;28;19959;-63
2022/01/26 01:32:50;;;;;;;;;;;15.50;47.80;;;;;;5094127;28;19916;-63
2022/01/26 01:35:15;;;;;;;;;;;15.50;47.80;;;;;;5102113;28;20192;-63
2022/01/26 01:37:41;;;;;;;;;;;15.50;47.90;;;;;;5095195;28;20409;-63
2022/01/26 01:40:06;;;;;;;;;;;15.50;47.90;;;;;;5094832;28;20002;-63
2022/01/26 01:42:32;;;;;;;;;;;15.50;47.90;;;;;;5095450;28;19912;-63
2022/01/26 01:44:57;;;;;;;;;;;15.50;47.80;;;;;;5093707;28;20346;-63
2022/01/26 01:47:23;;;;;;;;;;;15.50;47.70;;;;;;5095075;28;19908;-63
2022/01/26 01:49:48;;;;;;;;;;;15.50;47.80;;;;;;5094943;28;19952;-63
2022/01/26 01:52:15;;;;;;;;;;;15.50;47.70;;;;;;5095320;28;19908;-63
2022/01/26 01:54:44;;;;;;;;;;;15.50;47.80;;;;;;5093155;28;20387;-63
2022/01/26 01:57:10;;;;;;;;;;;15.50;47.70;;;;;;5094798;28;20299;-62
2022/01/26 01:59:35;;;;;;;;;;;15.50;47.70;;;;;;5094726;28;19908;-63
2022/01/26 02:02:01;;;;;;;;;;;15.50;47.80;;;;;;5094908;28;19908;-63
2022/01/26 02:04:26;;;;;;;;;;;15.50;47.80;;;;;;5094571;28;20069;-63
2022/01/26 02:06:52;;;;;;;;;;;15.50;47.80;;;;;;5094834;28;19965;-63
2022/01/26 02:09:17;;;;;;;;;;;15.50;47.80;;;;;;5094238;28;19931;-63
2022/01/26 02:11:50;;;;;;;;;;;15.50;47.90;;;;;;5094607;28;20642;-63
2022/01/26 02:14:41;;;;;;;;;;;15.50;47.80;;;;;;5093330;28;19908;-63
2022/01/26 02:20:02;;;;;;;;;;;15.40;47.90;;;;;;5098854;28;19923;-63
2022/01/26 03:02:59;;;;;;;;;;;16.00;46.50;;;;;;5092317;28;19912;-63
2022/01/26 03:05:31;;;;;;;;;;;16.10;46.50;;;;;;5111381;27;19908;-63
2022/01/26 03:08:05;;;;;;;;;;;16.10;46.50;;;;;;5092670;28;19918;-63
2022/01/26 03:10:38;;;;;;;;;;;16.10;46.50;;;;;;5099818;28;19912;-63
2022/01/26 03:13:12;;;;;;;;;;;16.10;46.40;;;;;;5092411;28;19999;-63
2022/01/26 03:15:46;;;;;;;;;;;16.10;46.40;;;;;;5100069;28;20376;-63
2022/01/26 03:20:42;;;;;;;;;;;16.00;46.40;;;;;;5091998;28;20015;-63
2022/01/26 03:28:45;;;;;;;;;;;16.00;46.60;;;;;;5093038;28;19966;-63
2022/01/26 03:31:42;;;;;;;;;;;16.00;46.60;;;;;;5126088;27;20023;-63
2022/01/26 03:34:03;;;;;;;;;;;16.00;46.50;;;;;;5092741;28;19988;-62
2022/01/26 03:36:32;;;;;;;;;;;16.00;46.50;;;;;;5098651;28;20399;-63
2022/01/26 03:39:07;;;;;;;;;;;16.00;46.50;;;;;;5092369;28;19908;-63
2022/01/26 03:41:45;;;;;;;;;;;15.90;46.60;;;;;;5099790;28;19961;-62
2022/01/26 03:44:11;;;;;;;;;;;16.00;46.60;;;;;;5091536;28;19939;-62
2022/01/26 03:46:36;;;;;;;;;;;15.90;46.60;;;;;;5092913;28;19912;-63
2022/01/26 03:49:02;;;;;;;;;;;16.00;46.60;;;;;;5092840;28;19908;-63
2022/01/26 03:51:28;;;;;;;;;;;15.90;46.50;;;;;;5091122;28;20061;-63
2022/01/26 03:53:53;;;;;;;;;;;15.90;46.50;;;;;;5092341;28;20006;-63
2022/01/26 03:56:19;;;;;;;;;;;15.90;46.60;;;;;;5092695;28;19916;-63
2022/01/26 03:58:44;;;;;;;;;;;15.90;46.60;;;;;;5072619;28;19913;-63
2022/01/26 04:01:10;;;;;;;;;;;16.00;46.60;;;;;;5072489;28;19909;-63
2022/01/26 04:03:35;;;;;;;;;;;15.90;46.50;;;;;;5072381;28;19999;-63
2022/01/26 04:06:01;;;;;;;;;;;16.00;46.60;;;;;;5072430;28;19923;-63
2022/01/26 04:08:29;;;;;;;;;;;15.90;47.10;;;;;;5071073;28;19913;-63
2022/01/26 04:13:30;;;;;;;;;;;15.90;46.60;;;;;;5079246;28;19972;-63
2022/01/26 04:15:55;;;;;;;;;;;15.90;46.70;;;;;;5072172;28;20361;-63
2022/01/26 04:18:27;;;;;;;;;;;15.90;46.70;;;;;;5072118;28;19978;-63
2022/01/26 04:20:56;;;;;;;;;;;15.90;47.20;;;;;;5072688;28;19916;-63
2022/01/26 04:25:51;;;;;;;;;;;16.00;46.50;;;;;;5092289;28;19914;-63
2022/01/26 04:28:23;;;;;;;;;;;16.00;46.50;;;;;;5092241;28;20473;-63
2022/01/26 04:30:49;;;;;;;;;;;15.90;46.40;;;;;;5098843;28;20278;-63
2022/01/26 04:33:15;;;;;;;;;;;16.00;46.50;;;;;;5074138;28;20007;-63
2022/01/26 04:35:43;;;;;;;;;;;16.00;46.50;;;;;;5107677;28;19916;-63
2022/01/26 04:38:22;;;;;;;;;;;16.00;46.50;;;;;;5125111;28;19927;-63
2022/01/26 04:40:59;;;;;;;;;;;16.00;46.40;;;;;;5091875;28;19999;-63
2022/01/26 04:43:29;;;;;;;;;;;16.00;46.40;;;;;;5124580;28;20229;-63
2022/01/26 04:45:54;;;;;;;;;;;16.00;46.50;;;;;;5091996;28;19913;-63
2022/01/26 04:48:20;;;;;;;;;;;16.00;46.40;;;;;;5092242;28;19916;-63
2022/01/26 04:50:45;;;;;;;;;;;16.00;46.40;;;;;;5091841;28;19915;-63
2022/01/26 04:53:11;;;;;;;;;;;15.90;46.30;;;;;;5124687;28;19912;-63
2022/01/26 04:55:36;;;;;;;;;;;15.90;46.40;;;;;;5090367;28;19912;-63
2022/01/26 04:58:02;;;;;;;;;;;15.90;46.40;;;;;;5091882;28;19919;-63
2022/01/26 05:00:27;;;;;;;;;;;15.90;46.40;;;;;;5124766;28;19915;-62
2022/01/26 05:02:53;;;;;;;;;;;15.90;46.40;;;;;;5090592;28;19915;-63
2022/01/26 05:05:18;;;;;;;;;;;15.90;46.40;;;;;;5095432;28;19919;-62
2022/01/26 05:07:44;;;;;;;;;;;15.90;46.60;;;;;;5094394;28;20395;-62
2022/01/26 05:10:09;;;;;;;;;;;15.80;46.60;;;;;;5095335;28;20383;-62
2022/01/26 05:12:35;;;;;;;;;;;15.90;46.60;;;;;;5094385;28;19969;-63
2022/01/26 05:15:01;;;;;;;;;;;15.80;46.60;;;;;;5094181;28;20018;-63
2022/01/26 05:17:27;;;;;;;;;;;15.80;46.60;;;;;;5095436;28;20114;-63
2022/01/26 05:19:56;;;;;;;;;;;15.80;47.30;;;;;;5095201;28;20019;-63
2022/01/26 05:22:22;;;;;;;;;;;15.90;46.60;;;;;;5094384;28;19935;-63
2022/01/26 05:24:47;;;;;;;;;;;15.90;46.60;;;;;;5093828;28;19990;-63
2022/01/26 05:27:13;;;;;;;;;;;15.90;46.60;;;;;;5095374;28;20317;-63
2022/01/26 05:29:38;;;;;;;;;;;15.90;46.50;;;;;;5095168;28;19912;-63
2022/01/26 05:32:04;;;;;;;;;;;15.90;46.50;;;;;;5094063;28;19912;-63
2022/01/26 05:34:29;;;;;;;;;;;15.90;46.40;;;;;;5095393;28;19912;-63
2022/01/26 05:36:55;;;;;;;;;;;15.90;46.40;;;;;;5095083;28;19920;-63
2022/01/26 05:39:20;;;;;;;;;;;15.90;46.40;;;;;;5127486;27;19912;-63
2022/01/26 05:41:46;;;;;;;;;;;15.90;46.40;;;;;;5095098;28;19960;-63
2022/01/26 05:44:11;;;;;;;;;;;15.90;46.30;;;;;;5127696;27;19962;-63
2022/01/26 05:46:44;;;;;;;;;;;15.90;46.30;;;;;;5095059;28;19912;-62
2022/01/26 05:49:10;;;;;;;;;;;15.90;46.30;;;;;;5127634;27;19908;-63
2022/01/26 05:51:36;;;;;;;;;;;15.90;46.30;;;;;;5095320;27;20369;-63
2022/01/26 05:54:02;;;;;;;;;;;15.90;46.40;;;;;;5110327;28;19950;-63
2022/01/26 05:56:29;;;;;;;;;;;15.90;46.40;;;;;;5094792;28;19912;-63
2022/01/26 05:58:54;;;;;;;;;;;15.90;46.30;;;;;;5093679;28;20020;-63
2022/01/26 06:01:21;;;;;;;;;;;15.90;46.30;;;;;;5094684;28;20376;-63
2022/01/26 06:03:46;;;;;;;;;;;15.90;46.30;;;;;;5094536;28;19908;-63
2022/01/26 06:06:12;;;;;;;;;;;16.00;46.40;;;;;;5094707;28;20364;-63
2022/01/26 06:08:37;;;;;;;;;;;15.90;46.30;;;;;;5094150;28;19914;-63
2022/01/26 06:11:04;;;;;;;;;;;15.90;46.90;;;;;;5094579;28;19915;-63
2022/01/26 06:13:29;;;;;;;;;;;15.90;46.30;;;;;;5094580;28;20009;-63
2022/01/26 06:15:55;;;;;;;;;;;15.90;46.30;;;;;;5093989;28;20412;-63
2022/01/26 06:18:20;;;;;;;;;;;15.90;46.30;;;;;;5094495;28;19962;-63
2022/01/26 06:20:46;;;;;;;;;;;15.90;46.30;;;;;;5094121;28;19919;-63
2022/01/26 06:23:11;;;;;;;;;;;15.80;46.30;;;;;;5094333;28;19908;-63
2022/01/26 06:25:36;;;;;;;;;;;15.90;46.30;;;;;;5126513;27;20253;-63
2022/01/26 06:28:06;;;;;;;;;;;15.90;46.30;;;;;;5094083;28;19912;-63
2022/01/26 06:30:32;;;;;;;;;;;15.90;46.30;;;;;;5093939;28;19961;-63
2022/01/26 06:32:57;;;;;;;;;;;15.90;46.30;;;;;;5094354;28;19908;-63
2022/01/26 06:35:23;;;;;;;;;;;15.80;46.30;;;;;;5075721;28;20256;-64
2022/01/26 06:37:49;;;;;;;;;;;15.90;46.40;;;;;;5109764;28;19942;-63
2022/01/26 06:40:14;;;;;;;;;;;15.90;46.30;;;;;;5126406;27;19908;-63
2022/01/26 06:42:53;;;;;;;;;;;15.80;46.30;;;;;;5094027;28;19984;-63
2022/01/26 06:45:21;;;;;;;;;;;15.80;46.30;;;;;;5092735;28;19938;-63
2022/01/26 06:50:31;;;;;;;;;;;15.80;46.90;;;;;;5092689;28;20390;-63
2022/01/26 06:52:56;;;;;;;;;;;15.90;46.30;;;;;;5093794;28;19912;-63
2022/01/26 06:55:22;;;;;;;;;;;15.90;46.40;;;;;;5091954;28;19947;-63
2022/01/26 06:57:47;;;;;;;;;;;15.90;46.30;;;;;;5093600;28;20006;-63
2022/01/26 07:00:13;;;;;;;;;;;15.80;46.30;;;;;;5093510;28;19912;-63
2022/01/26 07:02:39;;;;;;;;;;;15.90;46.30;;;;;;5094173;28;19930;-63
2022/01/26 07:05:11;;;;;;;;;;;15.80;46.30;;;;;;5092143;28;20384;-63
2022/01/26 07:07:36;;;;;;;;;;;15.80;46.30;;;;;;5092204;28;19957;-63
2022/01/26 07:10:02;;;;;;;;;;;15.90;46.30;;;;;;5092874;28;19930;-63
2022/01/26 07:12:28;;;;;;;;;;;15.90;46.30;;;;;;5093509;28;20364;-63
2022/01/26 07:21:13;;;;;;;;;;;15.80;46.30;;;;;;5091822;28;20017;-63
2022/01/26 07:23:13;;;;;;;;;;;15.90;46.40;;;;;;5093476;28;19919;-63
2022/01/26 07:25:39;;;;;;;;;;;15.90;46.30;;;;;;5092279;28;20015;-63
2022/01/26 07:28:05;;;;;;;;;;;15.90;46.30;;;;;;5091476;28;19916;-63
2022/01/26 07:30:36;;;;;;;;;;;15.90;46.30;;;;;;5125477;27;19980;-63
2022/01/26 07:33:05;;;;;;;;;;;15.90;46.30;;;;;;5091532;28;19908;-63
2022/01/26 07:35:30;;;;;;;;;;;15.80;46.30;;;;;;5091486;28;19912;-63
2022/01/26 07:38:01;;;;;;;;;;;15.90;46.30;;;;;;5108344;28;20372;-63
2022/01/26 07:40:27;;;;;;;;;;;15.90;46.40;;;;;;5099172;28;19954;-63
2022/01/26 07:42:52;;;;;;;;;;;15.80;46.30;;;;;;5092733;28;19912;-63
2022/01/26 07:45:18;;;;;;;;;;;15.80;46.30;;;;;;5092528;28;19915;-63
2022/01/26 07:47:44;;;;;;;;;;;15.80;46.30;;;;;;5091381;28;19916;-63
2022/01/26 07:50:12;;;;;;;;;;;15.80;46.30;;;;;;5092942;28;19930;-63
2022/01/26 07:52:40;;;;;;;;;;;15.80;46.30;;;;;;5092854;28;19920;-63
2022/01/26 07:55:06;;;;;;;;;;;15.80;46.30;;;;;;5092047;28;19988;-63
2022/01/26 07:57:32;;;;;;;;;;;15.80;46.30;;;;;;5091285;28;19912;-63
2022/01/26 07:59:57;;;;;;;;;;;15.80;46.30;;;;;;5092084;28;19941;-63
2022/01/26 08:02:23;;;;;;;;;;;15.80;46.30;;;;;;5092365;28;19952;-63
2022/01/26 08:04:48;;;;;;;;;;;15.80;46.40;;;;;;5092200;28;20334;-63
2022/01/26 08:07:13;;;;;;;;;;;15.70;46.30;;;;;;5092124;28;19912;-63
2022/01/26 08:09:43;;;;;;;;;;;15.80;46.40;;;;;;5107473;28;19965;-63
2022/01/26 08:12:12;;;;;;;;;;;15.70;46.30;;;;;;5092435;28;19916;-63
2022/01/26 08:14:38;;;;;;;;;;;15.80;46.40;;;;;;5074019;28;19943;-63
2022/01/26 08:17:06;;;;;;;;;;;15.80;46.30;;;;;;5092736;28;19959;-63
2022/01/26 08:19:32;;;;;;;;;;;15.80;46.30;;;;;;5124884;27;19916;-63
2022/01/26 08:22:00;;;;;;;;;;;15.80;46.30;;;;;;5092482;28;19919;-63
2022/01/26 08:24:28;;;;;;;;;;;15.80;46.20;;;;;;5091008;28;21496;-63
2022/01/26 08:26:55;;;;;;;;;;;15.90;46.20;;;;;;5092713;28;19975;-63
2022/01/26 08:29:31;;;;;;;;;;;15.80;46.10;;;;;;5091044;28;19923;-63
2022/01/26 08:31:57;;;;;;;;;;;15.80;46.10;;;;;;5092535;28;19908;-63
2022/01/26 08:34:22;;;;;;;;;;;15.80;46.20;;;;;;5092147;28;19958;-63
2022/01/26 08:36:48;;;;;;;;;;;15.80;46.20;;;;;;5092220;28;19912;-63
2022/01/26 08:39:14;;;;;;;;;;;15.80;46.10;;;;;;5095548;28;20023;-63
2022/01/26 08:41:39;;;;;;;;;;;15.80;46.10;;;;;;5096075;28;20346;-63
2022/01/26 08:44:05;;;;;;;;;;;15.80;46.20;;;;;;5095135;28;19915;-63
2022/01/26 08:46:30;;;;;;;;;;;15.80;46.20;;;;;;5094883;28;19908;-63
2022/01/26 08:48:56;;;;;;;;;;;15.80;46.20;;;;;;5095914;28;19908;-63
2022/01/26 08:51:21;;;;;;;;;;;15.80;46.30;;;;;;5096192;28;19912;-63
2022/01/26 08:53:47;;;;;;;;;;;15.80;46.30;;;;;;5094218;28;19968;-64
2022/01/26 08:56:12;;;;;;;;;;;15.80;46.20;;;;;;5096067;28;19915;-63
2022/01/26 08:58:38;;;;;;;;;;;15.80;46.10;;;;;;5090548;28;19908;-63
2022/01/26 09:01:03;;;;;;;;;;;15.80;46.20;;;;;;5075531;28;19912;-63
2022/01/26 09:03:29;;;;;;;;;;;15.80;46.20;;;;;;5075458;28;20380;-62
2022/01/26 09:05:54;;;;;;;;;;;15.70;46.20;;;;;;5074144;28;19908;-62
2022/01/26 09:08:20;;;;;;;;;;;15.70;46.20;;;;;;5075503;28;19931;-63
2022/01/26 09:10:45;;;;;;;;;;;15.70;46.20;;;;;;5074995;28;20372;-64
2022/01/26 09:13:11;;;;;;;;;;;15.70;46.20;;;;;;5075406;28;20284;-63
2022/01/26 09:15:39;;;;;;;;;;;15.70;46.20;;;;;;5074111;28;19908;-63
2022/01/26 09:18:06;;;;;;;;;;;15.70;46.20;;;;;;5075396;28;19943;-62
2022/01/26 09:20:34;;;;;;;;;;;15.80;46.30;;;;;;5074939;28;19920;-63
2022/01/26 09:23:00;;;;;;;;;;;15.80;46.20;;;;;;5088885;28;20364;-63
2022/01/26 09:25:25;;;;;;;;;;;15.70;46.20;;;;;;5094859;28;19908;-63
2022/01/26 09:27:51;;;;;;;;;;;15.70;46.20;;;;;;5094031;28;20141;-63
2022/01/26 09:30:16;;;;;;;;;;;15.70;46.20;;;;;;5095341;28;19915;-63
2022/01/26 09:32:42;;;;;;;;;;;15.70;46.30;;;;;;5094167;28;19947;-63
2022/01/26 09:35:07;;;;;;;;;;;15.70;46.40;;;;;;5128069;27;20383;-63
2022/01/26 09:37:33;;;;;;;;;;;15.70;46.40;;;;;;5095401;28;19918;-63
2022/01/26 09:39:58;;;;;;;;;;;15.70;46.30;;;;;;5094792;28;19912;-63
2022/01/26 09:42:24;;;;;;;;;;;15.70;47.00;;;;;;5093829;28;19912;-62
2022/01/26 09:44:49;;;;;;;;;;;15.70;46.30;;;;;;5110697;28;19931;-63
2022/01/26 09:47:15;;;;;;;;;;;15.70;46.30;;;;;;5093672;28;19947;-62
2022/01/26 09:49:40;;;;;;;;;;;15.70;46.30;;;;;;5093930;28;19957;-63
2022/01/26 09:52:13;;;;;;;;;;;15.70;46.30;;;;;;5094767;28;19915;-63
2022/01/26 09:54:39;;;;;;;;;;;15.70;46.30;;;;;;5101110;28;19912;-63
2022/01/26 09:57:04;;;;;;;;;;;15.70;46.30;;;;;;5094711;28;19967;-63
2022/01/26 09:59:30;;;;;;;;;;;15.70;46.30;;;;;;5094381;28;19908;-63
2022/01/26 10:01:56;;;;;;;;;;;15.70;46.30;;;;;;5094681;28;19908;-63
2022/01/26 10:04:27;;;;;;;;;;;15.70;46.30;;;;;;5093582;28;19920;-63
2022/01/26 10:07:00;;;;;;;;;;;15.70;46.30;;;;;;5093525;28;19908;-63
2022/01/26 10:09:41;;;;;;;;;;;15.70;46.30;;;;;;5092850;28;20356;-63
2022/01/26 10:17:35;;;;;;;;;;;15.90;46.10;;;;;;5094350;28;19919;-62
2022/01/26 10:20:03;;;;;;;;;;;15.90;45.80;;;;;;5094166;28;20394;-62
2022/01/26 10:22:32;;;;;;;;;;;16.00;45.60;;;;;;5076308;28;19995;-62
2022/01/26 10:25:08;;;;;;;;;;;16.20;45.50;;;;;;5092579;28;19920;-62
2022/01/26 10:27:38;;;;;;;;;;;16.30;45.20;;;;;;5094637;28;19954;-62
2022/01/26 10:30:05;;;;;;;;;;;16.30;45.00;;;;;;5094292;28;19908;-62
2022/01/26 10:32:31;;;;;;;;;;;16.40;44.90;;;;;;5094094;28;19995;-62
2022/01/26 10:34:57;;;;;;;;;;;16.40;44.80;;;;;;5094116;28;19908;-63
2022/01/26 10:37:23;;;;;;;;;;;16.50;44.80;;;;;;5094016;28;19912;-63
2022/01/26 10:39:51;;;;;;;;;;;16.50;44.70;;;;;;5092283;28;20268;-63
2022/01/26 10:42:20;;;;;;;;;;;16.50;44.70;;;;;;5094094;28;19915;-63
2022/01/26 10:44:50;;;;;;;;;;;16.50;44.70;;;;;;5093703;28;20296;-63
2022/01/26 10:47:25;;;;;;;;;;;16.50;44.60;;;;;;5100856;28;20251;-62
2022/01/26 10:52:24;;;;;;;;;;;16.50;44.50;;;;;;5092797;28;19908;-62
2022/01/26 10:54:50;;;;;;;;;;;16.50;44.50;;;;;;5076685;28;19912;-62
2022/01/26 10:57:15;;;;;;;;;;;16.50;44.40;;;;;;5093630;28;20265;-62
2022/01/26 10:59:45;;;;;;;;;;;16.60;44.50;;;;;;5093571;28;20261;-62
2022/01/26 11:02:11;;;;;;;;;;;16.60;44.40;;;;;;5092415;28;19915;-62
2022/01/26 11:04:37;;;;;;;;;;;16.60;44.40;;;;;;5093262;28;20368;-62
2022/01/26 11:07:03;;;;;;;;;;;16.60;44.40;;;;;;5093553;28;20369;-62
2022/01/26 11:09:30;;;;;;;;;;;16.60;44.40;;;;;;5093153;28;19961;-62
2022/01/26 11:12:03;;;;;;;;;;;16.50;44.40;;;;;;5092158;28;20098;-62
2022/01/26 11:14:37;;;;;;;;;;;16.60;44.40;;;;;;5093335;28;19909;-62
2022/01/26 11:17:02;;;;;;;;;;;16.50;44.40;;;;;;5092046;28;19912;-63
2022/01/26 11:19:30;;;;;;;;;;;16.60;44.50;;;;;;5093046;28;19926;-63
2022/01/26 11:22:05;;;;;;;;;;;16.50;44.40;;;;;;5091858;28;19912;-63
2022/01/26 11:24:30;;;;;;;;;;;16.50;44.40;;;;;;5092556;28;20078;-63
2022/01/26 11:27:02;;;;;;;;;;;16.50;44.40;;;;;;5091755;28;20010;-63
2022/01/26 11:29:32;;;;;;;;;;;16.50;44.40;;;;;;5093577;28;19912;-63
2022/01/26 11:32:01;;;;;;;;;;;16.50;44.40;;;;;;5093269;28;20010;-63
2022/01/26 11:34:27;;;;;;;;;;;16.50;44.40;;;;;;5093187;28;19912;-63
2022/01/26 11:36:56;;;;;;;;;;;16.50;44.40;;;;;;5091771;28;20007;-63
2022/01/26 11:42:24;;;;;;;;;;;16.50;44.40;;;;;;5092663;28;19915;-63
2022/01/26 11:45:05;;;;;;;;;;;16.50;44.30;;;;;;5092608;28;19919;-63
2022/01/26 11:47:32;;;;;;;;;;;16.50;44.30;;;;;;5092266;28;19990;-62
2022/01/26 11:50:19;;;;;;;;;;;16.50;44.30;;;;;;5092418;28;19916;-62
2022/01/26 11:52:45;;;;;;;;;;;16.50;44.20;;;;;;5091424;28;19916;-62
2022/01/26 11:55:27;;;;;;;;;;;16.60;44.30;;;;;;5092257;28;19998;-62
2022/01/26 11:57:54;;;;;;;;;;;16.50;44.20;;;;;;5091106;28;19955;-62
2022/01/26 12:00:38;;;;;;;;;;;16.50;44.30;;;;;;5092435;28;20357;-62
2022/01/26 12:03:08;;;;;;;;;;;16.60;44.40;;;;;;5097008;28;19908;-62
2022/01/26 12:05:40;;;;;;;;;;;16.60;44.50;;;;;;5098839;28;20451;-62
2022/01/26 12:08:05;;;;;;;;;;;16.60;44.40;;;;;;5092135;28;19999;-63
2022/01/26 12:10:32;;;;;;;;;;;16.60;44.30;;;;;;5091750;28;19995;-62
2022/01/26 12:13:02;;;;;;;;;;;16.60;44.30;;;;;;5090882;28;20387;-62
2022/01/26 12:15:30;;;;;;;;;;;16.60;44.20;;;;;;5091972;28;19912;-62
2022/01/26 12:18:12;;;;;;;;;;;16.60;44.10;;;;;;5091197;28;19912;-62
2022/01/26 12:42:37;;;;;;;;;;;16.60;44.20;;;;;;5091005;28;19938;-63
2022/01/26 12:45:03;;;;;;;;;;;16.60;44.30;;;;;;5097558;28;19908;-63
2022/01/26 12:47:29;;;;;;;;;;;16.60;44.30;;;;;;5091944;28;20256;-63
2022/01/26 12:49:57;;;;;;;;;;;16.60;44.30;;;;;;5092108;28;19908;-63
2022/01/26 12:52:23;;;;;;;;;;;16.50;44.20;;;;;;5090747;28;19915;-62
2022/01/26 12:54:48;;;;;;;;;;;16.60;44.20;;;;;;5091616;28;19912;-62
2022/01/26 12:57:14;;;;;;;;;;;16.60;44.20;;;;;;5091804;28;19916;-62
2022/01/26 12:59:39;;;;;;;;;;;16.60;44.20;;;;;;5091777;28;19908;-62
2022/01/26 13:02:05;;;;;;;;;;;16.60;44.20;;;;;;5090831;28;19915;-62
2022/01/26 13:04:30;;;;;;;;;;;16.60;44.10;;;;;;5090500;28;19957;-62
2022/01/26 13:06:56;;;;;;;;;;;16.60;44.10;;;;;;5091986;28;19960;-63
2022/01/26 13:09:26;;;;;;;;;;;16.60;44.10;;;;;;5091491;28;19958;-63
2022/01/26 13:11:52;;;;;;;;;;;16.60;44.10;;;;;;5090709;28;19909;-63
2022/01/26 13:14:30;;;;;;;;;;;16.60;44.00;;;;;;5091879;28;20011;-63
2022/01/26 13:16:58;;;;;;;;;;;16.60;44.00;;;;;;5097422;28;20403;-63
2022/01/26 13:22:15;;;;;;;;;;;16.60;43.90;;;;;;5092281;28;20348;-63
2022/01/26 13:24:57;;;;;;;;;;;16.60;43.90;;;;;;5092219;28;19943;-63
2022/01/26 13:37:36;;;;;;;;;;;16.60;43.70;;;;;;5101151;28;19919;-63
2022/01/26 13:40:27;;;;;;;;;;;16.70;43.80;;;;;;5094824;28;19908;-63
2022/01/26 13:50:56;;;;;;;;;;;16.70;43.80;;;;;;5094818;28;19919;-62
2022/01/26 13:53:25;;;;;;;;;;;16.70;43.70;;;;;;5101832;28;19912;-63
2022/01/26 14:01:35;;;;;;;;;;;16.70;43.60;;;;;;5094943;28;19930;-62
2022/01/26 14:03:39;;;;;;;;;;;16.80;43.70;;;;;;5089844;28;19974;-63
2022/01/26 14:06:05;;;;;;;;;;;16.70;43.50;;;;;;5094780;28;20376;-62
2022/01/26 14:08:30;;;;;;;;;;;16.70;43.50;;;;;;5092845;28;20284;-62
2022/01/26 14:10:56;;;;;;;;;;;16.70;43.50;;;;;;5094627;28;19908;-63
2022/01/26 14:13:24;;;;;;;;;;;16.70;43.50;;;;;;5094552;28;19912;-63
2022/01/26 14:15:52;;;;;;;;;;;16.70;43.50;;;;;;5127247;27;19912;-63
2022/01/26 14:20:49;;;;;;;;;;;16.70;43.50;;;;;;5092940;28;19975;-63
2022/01/26 14:25:42;;;;;;;;;;;16.70;43.50;;;;;;5093004;28;19908;-63
2022/01/26 14:28:10;;;;;;;;;;;16.70;43.40;;;;;;5094473;28;20382;-63
2022/01/26 14:30:51;;;;;;;;;;;16.70;43.40;;;;;;5110170;27;19952;-63
2022/01/26 14:53:15;;;;;;;;;;;16.80;43.50;;;;;;5092800;28;20011;-62
2022/01/26 15:12:06;;;;;;;;;;;16.70;43.40;;;;;;5093027;28;20007;-62
2022/01/26 15:50:52;;;;;;;;;;;16.80;43.30;;;;;;5092716;28;20276;-63
2022/01/26 16:04:25;;;;;;;;;;;16.80;43.30;;;;;;5092536;28;19966;-63
2022/01/26 17:21:14;;;;;;;;;;;16.90;43.20;;;;;;5095995;28;20004;-62
2022/01/26 17:55:08;;;;;;;;;;;16.80;43.20;;;;;;5095280;28;20291;-63
2022/01/26 18:07:16;;;;;;;;;;;16.90;43.20;;;;;;5102047;28;19915;-62
2022/01/26 18:15:32;;;;;;;;;;;16.90;43.20;;;;;;5094624;28;20010;-62
2022/01/26 18:26:07;;;;;;;;;;;16.90;43.90;;;;;;5094031;28;19931;-62
2022/01/26 18:50:06;;;;;;;;;;;16.90;43.30;;;;;;5073724;28;19916;-62
2022/01/26 18:52:32;;;;;;;;;;;16.90;43.30;;;;;;5072497;28;20361;-62
2022/01/26 18:54:58;;;;;;;;;;;16.90;43.30;;;;;;5073240;28;19916;-62
2022/01/26 18:57:23;;;;;;;;;;;16.90;43.30;;;;;;5082800;28;19916;-62
2022/01/26 18:59:49;;;;;;;;;;;16.90;43.30;;;;;;5093689;28;19912;-62
2022/01/26 19:02:15;;;;;;;;;;;16.90;43.30;;;;;;5092559;28;19912;-62
2022/01/26 19:04:44;;;;;;;;;;;16.90;43.30;;;;;;5126298;27;20380;-62
2022/01/26 19:07:10;;;;;;;;;;;16.90;43.30;;;;;;5093715;28;19912;-62
2022/01/26 19:09:40;;;;;;;;;;;16.90;43.30;;;;;;5125843;27;19969;-62
2022/01/26 19:12:09;;;;;;;;;;;16.90;43.30;;;;;;5099314;28;19947;-62
2022/01/26 19:14:38;;;;;;;;;;;16.90;43.30;;;;;;5092173;28;19912;-62
2022/01/26 19:28:01;;;;;;;;;;;16.90;43.30;;;;;;5061283;28;19923;-62
2022/01/26 19:31:21;;;;;;;;;;;16.90;43.30;;;;;;5071890;28;19908;-62
2022/01/26 19:44:30;;;;;;;;;;;16.90;43.30;;;;;;5072665;28;20429;-62
2022/01/26 19:52:10;;;;;;;;;;;16.90;43.40;;;;;;5072770;28;19916;-62
2022/01/26 19:54:36;;;;;;;;;;;16.90;43.40;;;;;;5072101;28;19909;-62
2022/01/26 19:57:03;;;;;;;;;;;16.90;43.40;;;;;;5077690;28;19920;-62
2022/01/26 19:59:28;;;;;;;;;;;16.90;43.40;;;;;;5125661;27;19915;-62
2022/01/26 20:01:54;;;;;;;;;;;16.90;43.40;;;;;;5091532;28;19912;-62
2022/01/26 20:04:20;;;;;;;;;;;16.90;43.40;;;;;;5092447;28;19919;-62
2022/01/26 20:06:46;;;;;;;;;;;16.90;43.30;;;;;;5092673;28;19935;-62
2022/01/26 20:09:23;;;;;;;;;;;16.90;43.40;;;;;;5092201;28;20333;-62
2022/01/26 20:14:24;;;;;;;;;;;16.90;43.40;;;;;;5091340;28;19919;-62
2022/01/26 20:16:49;;;;;;;;;;;16.90;43.40;;;;;;5074954;28;19943;-62
2022/01/26 20:19:14;;;;;;;;;;;16.90;43.40;;;;;;5092447;28;19923;-62
2022/01/26 20:21:40;;;;;;;;;;;16.90;43.40;;;;;;5092525;28;19916;-62
2022/01/26 20:24:06;;;;;;;;;;;16.90;43.50;;;;;;5091981;28;19908;-62
2022/01/26 20:26:31;;;;;;;;;;;16.90;43.40;;;;;;5092417;28;19908;-62
2022/01/26 20:28:57;;;;;;;;;;;16.90;43.40;;;;;;5092262;28;19915;-62
2022/01/26 20:31:25;;;;;;;;;;;16.90;43.40;;;;;;5092598;28;20269;-62
2022/01/26 20:33:51;;;;;;;;;;;16.90;43.40;;;;;;5094081;28;19908;-62
2022/01/26 20:36:16;;;;;;;;;;;16.90;43.40;;;;;;5095449;28;19912;-62
2022/01/26 20:38:42;;;;;;;;;;;16.90;43.50;;;;;;5096302;28;19965;-62
2022/01/26 20:41:08;;;;;;;;;;;16.90;43.50;;;;;;5096546;28;19915;-62
2022/01/26 20:43:33;;;;;;;;;;;16.90;43.40;;;;;;5095151;28;19953;-61
2022/01/26 20:46:02;;;;;;;;;;;16.90;43.40;;;;;;5096746;28;19912;-62
2022/01/26 20:48:27;;;;;;;;;;;16.90;43.40;;;;;;5096312;28;19908;-62
2022/01/26 20:50:53;;;;;;;;;;;16.90;43.40;;;;;;5096227;28;19912;-62
2022/01/26 20:53:18;;;;;;;;;;;16.90;43.50;;;;;;5096266;28;19912;-62
2022/01/26 20:55:44;;;;;;;;;;;16.90;43.40;;;;;;5096033;28;19919;-62
2022/01/26 20:58:09;;;;;;;;;;;16.90;43.40;;;;;;5096057;28;19965;-62
2022/01/26 21:00:34;;;;;;;;;;;16.90;43.40;;;;;;5095875;28;20003;-62
2022/01/26 21:03:00;;;;;;;;;;;16.90;43.40;;;;;;5096561;28;20296;-62
2022/01/26 21:05:29;;;;;;;;;;;16.90;43.50;;;;;;5094701;28;20399;-62
2022/01/26 21:07:54;;;;;;;;;;;16.90;43.50;;;;;;5094824;28;19919;-62
2022/01/26 21:10:20;;;;;;;;;;;16.90;43.40;;;;;;5095611;28;19908;-62
2022/01/26 21:12:45;;;;;;;;;;;16.90;43.40;;;;;;5095808;28;19912;-62
2022/01/26 21:15:11;;;;;;;;;;;16.90;43.40;;;;;;5095674;28;19908;-62
2022/01/26 21:17:37;;;;;;;;;;;16.90;43.40;;;;;;5095581;28;20242;-62